Time;durP1;ratioP1;P1;durP2;ratioP2;P2;SDS_P1;SDS_P2;PMS_P1;PMS_P2;Temp;Humidity;BMP_temperature;BMP_pressure;BME280_temperature;BME280_humidity;BME280_pressure;Samples;Min_cycle;Max_cycle;Signal;HPM_P1;HPM_P2
2020/12/20 00:00:07;;;;;;;7.68;6.10;;;;;;;5.88;89.00;101807.81;4978483;28;20049;-79
2020/12/20 00:02:33;;;;;;;6.65;5.20;;;;;;;5.84;89.22;101806.31;4982856;28;20030;-77
2020/12/20 00:04:58;;;;;;;7.72;6.05;;;;;;;5.84;89.25;101816.72;4979824;28;20560;-76
2020/12/20 00:07:24;;;;;;;9.43;6.22;;;;;;;5.85;89.46;101807.97;4990109;28;20030;-77
2020/12/20 00:09:49;;;;;;;7.82;5.18;;;;;;;5.83;89.29;101797.63;5009079;28;20034;-75
2020/12/20 00:12:16;;;;;;;8.32;5.85;;;;;;;5.87;88.84;101808.72;4982629;28;20117;-78
2020/12/20 00:14:41;;;;;;;10.68;5.50;;;;;;;5.84;89.19;101812.34;4998327;28;20090;-78
2020/12/20 00:17:08;;;;;;;10.68;5.95;;;;;;;5.89;89.42;101808.63;4997335;28;20120;-79
2020/12/20 00:19:36;;;;;;;7.85;5.38;;;;;;;5.90;89.02;101812.94;4982778;28;20030;-77
2020/12/20 00:22:03;;;;;;;7.72;5.65;;;;;;;5.92;88.86;101808.47;4982784;28;20040;-78
2020/12/20 00:24:29;;;;;;;7.80;5.65;;;;;;;5.90;88.84;101810.31;4999887;28;20104;-76
2020/12/20 00:26:56;;;;;;;9.15;5.60;;;;;;;5.95;88.75;101814.38;4984455;28;20049;-78
2020/12/20 00:29:22;;;;;;;8.40;5.60;;;;;;;5.94;88.85;101815.25;4982200;28;20092;-77
2020/12/20 00:31:48;;;;;;;6.95;5.00;;;;;;;5.88;89.08;101817.34;5010711;28;20377;-76
2020/12/20 00:34:13;;;;;;;9.32;5.63;;;;;;;5.85;89.15;101816.63;4989558;28;20374;-78
2020/12/20 00:36:49;;;;;;;7.70;5.40;;;;;;;5.80;89.10;101818.66;5000050;28;20042;-77
2020/12/20 00:39:16;;;;;;;9.55;5.43;;;;;;;5.72;89.14;101813.03;4995547;28;20061;-80
2020/12/20 00:41:42;;;;;;;9.55;5.63;;;;;;;5.63;89.24;101822.25;4965898;28;20037;-78
2020/12/20 00:44:08;;;;;;;5.82;5.25;;;;;;;5.52;90.02;101821.16;4980023;28;20030;-79
2020/12/20 00:46:37;;;;;;;8.05;5.22;;;;;;;5.38;90.10;101825.38;5009597;28;20399;-76
2020/12/20 00:49:03;;;;;;;7.32;5.53;;;;;;;5.25;90.85;101830.47;5005234;28;20034;-79
2020/12/20 00:51:35;;;;;;;6.43;5.40;;;;;;;5.12;91.10;101826.81;4999295;28;20111;-79
2020/12/20 00:54:02;;;;;;;9.30;5.80;;;;;;;4.96;91.73;101815.63;4995322;28;20038;-79
2020/12/20 00:56:32;;;;;;;8.00;5.22;;;;;;;4.94;92.10;101836.50;4983477;28;20038;-78
2020/12/20 00:58:59;;;;;;;9.23;6.28;;;;;;;4.81;92.50;101836.31;4979213;28;20144;-79
2020/12/20 01:01:25;;;;;;;9.20;6.13;;;;;;;4.83;92.09;101841.44;4994823;28;20512;-78
2020/12/20 01:03:50;;;;;;;6.90;5.32;;;;;;;4.76;92.40;101842.66;4994350;28;20484;-78
2020/12/20 01:06:21;;;;;;;8.23;5.40;;;;;;;4.65;92.90;101844.09;4958932;28;20038;-78
2020/12/20 01:08:52;;;;;;;10.30;6.97;;;;;;;4.52;92.79;101844.81;5004090;28;20120;-77
2020/12/20 01:11:20;;;;;;;7.20;5.45;;;;;;;4.40;93.19;101839.31;4999446;28;20066;-77
2020/12/20 01:13:50;;;;;;;9.05;5.93;;;;;;;4.33;93.46;101843.16;4973442;28;20042;-77
2020/12/20 01:16:17;;;;;;;7.53;6.05;;;;;;;4.23;93.88;101841.97;4998235;28;20046;-78
2020/12/20 01:18:43;;;;;;;12.65;6.22;;;;;;;4.15;94.16;101849.31;4965542;28;20094;-77
2020/12/20 01:21:09;;;;;;;9.50;6.43;;;;;;;4.06;94.28;101848.00;5014221;28;20077;-77
2020/12/20 01:23:35;;;;;;;9.40;6.10;;;;;;;4.03;94.59;101842.97;4980225;28;20042;-78
2020/12/20 01:26:01;;;;;;;7.80;5.95;;;;;;;4.01;94.39;101840.47;4981604;28;20042;-78
2020/12/20 01:28:28;;;;;;;9.85;6.30;;;;;;;4.05;94.42;101841.13;4952501;28;20509;-78
2020/12/20 01:30:54;;;;;;;9.65;6.63;;;;;;;4.04;94.48;101842.06;4951786;28;20449;-77
2020/12/20 01:33:35;;;;;;;10.95;6.18;;;;;;;4.06;94.83;101837.63;4994663;28;20125;-77
2020/12/20 01:36:10;;;;;;;7.95;6.53;;;;;;;4.06;94.34;101835.84;4999999;28;20783;-77
2020/12/20 01:38:36;;;;;;;13.60;6.70;;;;;;;4.10;94.54;101845.16;4991821;28;20062;-77
2020/12/20 01:41:02;;;;;;;9.05;6.18;;;;;;;4.04;94.20;101839.47;4985986;28;20058;-77
2020/12/20 01:43:43;;;;;;;11.93;6.00;;;;;;;4.03;94.56;101838.63;4968162;28;20030;-77
2020/12/20 01:46:13;;;;;;;9.20;5.93;;;;;;;4.04;94.64;101853.28;5002800;28;20042;-78
2020/12/20 01:48:39;;;;;;;8.48;6.72;;;;;;;4.02;94.74;101847.31;4967079;28;20026;-76
2020/12/20 01:51:06;;;;;;;9.38;6.72;;;;;;;4.02;94.78;101846.50;5010570;28;20108;-76
2020/12/20 01:53:32;;;;;;;10.65;7.80;;;;;;;4.04;94.47;101855.03;4991298;28;20166;-77
2020/12/20 01:56:03;;;;;;;10.23;6.85;;;;;;;4.09;94.71;101853.88;4963086;28;20065;-79
2020/12/20 01:58:36;;;;;;;11.27;6.70;;;;;;;4.08;94.54;101851.38;5002223;28;20129;-79
2020/12/20 02:01:09;;;;;;;9.20;6.47;;;;;;;4.09;94.69;101850.47;5031135;28;20053;-78
2020/12/20 02:03:54;;;;;;;9.88;6.88;;;;;;;4.15;94.18;101839.75;5000684;28;20405;-81
2020/12/20 02:06:28;;;;;;;10.10;6.80;;;;;;;4.18;94.24;101839.63;5011072;28;20065;-78
2020/12/20 02:08:58;;;;;;;8.65;6.22;;;;;;;4.16;94.05;101840.59;4977569;28;20039;-79
2020/12/20 02:11:24;;;;;;;9.15;6.70;;;;;;;4.08;94.37;101839.22;4986699;28;20113;-78
2020/12/20 02:13:52;;;;;;;9.75;6.88;;;;;;;4.02;94.33;101854.28;4950146;28;20049;-77
2020/12/20 02:16:24;;;;;;;7.53;5.45;;;;;;;3.92;94.55;101853.03;4975657;28;20038;-79
2020/12/20 02:18:51;;;;;;;10.77;6.22;;;;;;;3.88;94.87;101855.81;4945782;28;20138;-79
2020/12/20 02:21:23;;;;;;;10.75;7.53;;;;;;;3.90;95.04;101835.81;4976092;28;20048;-78
2020/12/20 02:23:55;;;;;;;12.32;7.80;;;;;;;4.10;94.67;101831.34;4976544;28;20121;-78
2020/12/20 02:26:30;;;;;;;14.07;7.85;;;;;;;4.08;94.35;101812.41;4995621;28;20038;-77
2020/12/20 02:28:56;;;;;;;9.82;6.78;;;;;;;4.21;93.65;101833.41;4994548;28;20069;-79
2020/12/20 02:31:26;;;;;;;9.65;7.05;;;;;;;4.22;93.37;101841.13;4998877;28;20056;-77
2020/12/20 02:33:53;;;;;;;11.68;7.18;;;;;;;4.24;93.75;101841.88;4995755;28;20065;-78
2020/12/20 02:36:18;;;;;;;10.13;7.03;;;;;;;4.19;93.44;101840.44;5001475;28;20034;-77
2020/12/20 02:38:45;;;;;;;18.67;7.65;;;;;;;4.12;93.39;101839.06;4998274;28;20034;-78
2020/12/20 02:41:31;;;;;;;9.13;6.03;;;;;;;4.00;93.96;101841.38;4978612;28;20030;-78
2020/12/20 02:43:59;;;;;;;9.82;6.55;;;;;;;3.93;94.24;101842.59;4977995;28;20392;-79
2020/12/20 02:46:26;;;;;;;8.15;6.20;;;;;;;3.76;94.11;101834.81;4978129;28;20045;-78
2020/12/20 02:48:59;;;;;;;10.35;6.18;;;;;;;3.70;94.34;101835.94;4991065;28;20476;-78
2020/12/20 02:51:25;;;;;;;12.32;7.80;;;;;;;3.69;94.69;101835.09;4978537;28;20034;-78
2020/12/20 02:53:51;;;;;;;8.35;5.82;;;;;;;3.60;94.83;101838.16;4978476;28;20030;-78
2020/12/20 02:56:30;;;;;;;9.13;6.47;;;;;;;3.59;95.27;101840.81;4998477;28;20129;-78
2020/12/20 02:58:58;;;;;;;14.35;7.35;;;;;;;3.52;95.67;101835.06;5000342;28;20042;-77
2020/12/20 03:01:25;;;;;;;13.45;6.88;;;;;;;3.47;95.42;101839.66;5011453;28;20555;-77
2020/12/20 03:03:51;;;;;;;11.43;6.88;;;;;;;3.42;95.89;101833.84;4978034;28;20066;-76
2020/12/20 03:06:19;;;;;;;10.93;6.45;;;;;;;3.33;95.79;101836.88;5007079;28;20041;-78
2020/12/20 03:08:46;;;;;;;15.35;7.28;;;;;;;3.39;96.12;101831.38;4979086;28;20088;-80
2020/12/20 03:11:12;;;;;;;9.45;6.47;;;;;;;3.48;95.83;101830.94;5010298;28;20036;-78
2020/12/20 03:13:39;;;;;;;10.20;7.03;;;;;;;3.54;96.12;101835.00;5011420;28;20037;-76
2020/12/20 03:16:04;;;;;;;9.35;6.15;;;;;;;3.48;95.85;101830.94;5005445;28;20077;-79
2020/12/20 03:18:35;;;;;;;10.43;6.72;;;;;;;3.49;95.58;101827.44;4965577;28;20038;-78
2020/12/20 03:21:02;;;;;;;14.13;6.78;;;;;;;3.52;95.76;101835.06;4994100;28;20073;-77
2020/12/20 03:23:36;;;;;;;7.85;6.18;;;;;;;3.52;95.76;101840.25;4962829;28;20038;-77
2020/12/20 03:26:22;;;;;;;7.10;5.88;;;;;;;3.59;96.16;101833.88;4980754;28;20135;-78
2020/12/20 03:29:08;;;;;;;9.63;6.20;;;;;;;3.73;95.76;101821.97;4988656;28;20050;-77
2020/12/20 03:31:59;;;;;;;8.50;7.00;;;;;;;3.71;95.41;101829.81;4993284;28;20042;-79
2020/12/20 03:34:45;;;;;;;9.70;6.30;;;;;;;3.68;95.58;101825.63;4995671;28;20061;-78
2020/12/20 03:37:26;;;;;;;10.02;7.30;;;;;;;3.84;95.68;101832.66;4994089;28;20094;-78
2020/12/20 03:39:57;;;;;;;9.27;6.10;;;;;;;3.80;95.42;101826.78;4987548;28;20125;-78
2020/12/20 03:42:24;;;;;;;9.32;6.53;;;;;;;3.88;95.44;101824.66;4976941;28;20064;-77
2020/12/20 03:44:50;;;;;;;9.77;6.55;;;;;;;3.99;95.39;101825.84;4997634;28;20503;-78
2020/12/20 03:47:16;;;;;;;9.55;6.80;;;;;;;4.14;94.82;101830.28;4999740;28;20034;-77
2020/12/20 03:49:43;;;;;;;8.10;6.50;;;;;;;4.17;94.86;101817.16;4985652;28;20026;-77
2020/12/20 03:52:08;;;;;;;9.77;6.13;;;;;;;4.24;94.28;101822.88;5003113;28;20069;-77
2020/12/20 03:54:57;;;;;;;9.07;6.28;;;;;;;4.32;94.01;101831.09;4964756;28;20042;-77
2020/12/20 03:57:24;;;;;;;8.13;5.97;;;;;;;4.46;93.25;101838.16;4979084;28;20038;-81
2020/12/20 03:59:50;;;;;;;7.97;6.65;;;;;;;4.37;93.80;101836.03;4979504;28;20152;-77
2020/12/20 04:02:17;;;;;;;9.65;6.13;;;;;;;4.32;93.66;101846.69;4977755;28;20114;-79
2020/12/20 04:04:42;;;;;;;11.48;6.65;;;;;;;4.36;93.49;101849.97;4988538;28;20054;-77
2020/12/20 04:07:08;;;;;;;7.40;6.00;;;;;;;4.36;93.38;101853.41;4994551;28;20023;-78
2020/12/20 04:09:38;;;;;;;7.97;5.38;;;;;;;4.43;93.78;101853.94;4961595;28;20128;-78
2020/12/20 04:12:12;;;;;;;11.27;6.47;;;;;;;4.42;93.52;101854.84;4995879;28;20029;-78
2020/12/20 04:14:38;;;;;;;9.88;5.80;;;;;;;4.43;93.42;101851.34;4998230;28;20034;-77
2020/12/20 04:17:04;;;;;;;8.80;5.45;;;;;;;4.45;93.54;101860.72;4963029;28;20034;-77
2020/12/20 04:19:30;;;;;;;8.63;5.32;;;;;;;4.52;93.67;101857.78;4952440;28;20412;-77
2020/12/20 04:22:03;;;;;;;7.72;5.32;;;;;;;4.56;93.50;101841.13;4992792;28;20038;-77
2020/12/20 04:24:57;;;;;;;8.52;5.80;;;;;;;4.64;93.12;101846.78;4986207;28;20038;-77
2020/12/20 04:27:32;;;;;;;8.15;5.47;;;;;;;4.67;92.97;101844.84;4991959;28;20484;-78
2020/12/20 04:30:01;;;;;;;9.98;6.80;;;;;;;4.70;92.35;101843.84;4962384;28;20350;-77
2020/12/20 04:32:27;;;;;;;11.18;6.97;;;;;;;4.68;92.77;101832.69;4958789;28;20027;-77
2020/12/20 04:34:52;;;;;;;9.65;6.28;;;;;;;4.70;92.76;101832.63;4997293;28;20034;-77
2020/12/20 04:37:19;;;;;;;9.52;6.68;;;;;;;4.69;92.46;101831.78;4990515;28;20038;-78
2020/12/20 04:40:06;;;;;;;7.55;6.32;;;;;;;4.81;92.22;101844.09;4996932;28;20046;-76
2020/12/20 04:42:40;;;;;;;8.27;6.13;;;;;;;4.86;91.95;101836.91;4993779;28;20042;-80
2020/12/20 04:45:07;;;;;;;11.60;6.45;;;;;;;4.85;92.15;101837.81;5004006;28;20038;-77
2020/12/20 04:47:39;;;;;;;7.88;6.40;;;;;;;4.94;91.36;101844.28;4994499;28;20018;-77
2020/12/20 04:50:06;;;;;;;8.07;6.13;;;;;;;5.04;91.39;101836.81;4996144;28;20034;-77
2020/12/20 04:52:33;;;;;;;8.35;6.53;;;;;;;5.01;90.83;101844.78;4995075;28;20030;-78
2020/12/20 04:55:01;;;;;;;6.85;5.10;;;;;;;4.96;91.48;101841.63;4976723;28;20039;-77
2020/12/20 04:57:50;;;;;;;9.27;5.75;;;;;;;4.92;91.56;101845.31;4984208;28;20035;-75
2020/12/20 05:00:21;;;;;;;7.22;5.43;;;;;;;4.94;91.26;101853.88;4990210;28;20077;-78
2020/12/20 05:02:47;;;;;;;6.07;5.32;;;;;;;4.88;91.74;101855.88;4981343;28;20052;-78
2020/12/20 05:05:15;;;;;;;8.73;6.10;;;;;;;4.85;91.87;101863.81;4962254;28;20039;-77
2020/12/20 05:07:43;;;;;;;7.35;6.10;;;;;;;4.88;91.47;101862.81;4978470;28;20037;-77
2020/12/20 05:10:10;;;;;;;7.07;5.80;;;;;;;4.89;92.06;101864.50;4968417;28;20101;-76
2020/12/20 05:12:42;;;;;;;8.45;5.78;;;;;;;4.88;92.03;101866.25;4998841;28;20064;-76
2020/12/20 05:15:23;;;;;;;11.40;5.80;;;;;;;4.96;91.25;101865.00;4981957;28;20045;-77
2020/12/20 05:18:11;;;;;;;10.30;6.35;;;;;;;5.00;91.75;101858.72;4998324;28;20137;-77
2020/12/20 05:20:44;;;;;;;8.70;5.75;;;;;;;5.04;90.78;101857.63;4999103;28;20041;-78
2020/12/20 05:23:15;;;;;;;9.38;5.93;;;;;;;5.03;91.21;101855.97;4997372;28;20058;-80
2020/12/20 05:25:42;;;;;;;10.48;5.68;;;;;;;5.03;91.40;101851.59;4994152;28;20519;-78
2020/12/20 05:28:17;;;;;;;7.88;5.70;;;;;;;5.01;91.36;101860.38;4997540;28;20120;-78
2020/12/20 05:30:48;;;;;;;7.47;4.82;;;;;;;4.99;91.12;101852.69;4981639;28;20737;-78
2020/12/20 05:33:35;;;;;;;9.05;5.40;;;;;;;5.05;91.30;101867.94;4968109;28;20112;-77
2020/12/20 05:36:08;;;;;;;10.57;5.13;;;;;;;4.99;91.46;101857.88;4980876;28;20460;-78
2020/12/20 05:38:37;;;;;;;7.07;4.90;;;;;;;4.97;91.74;101857.13;4997727;28;20576;-77
2020/12/20 05:41:03;;;;;;;7.63;5.18;;;;;;;4.99;91.47;101863.09;4981584;28;20504;-77
2020/12/20 05:43:30;;;;;;;8.52;5.05;;;;;;;4.93;91.50;101857.38;4997818;28;20531;-75
2020/12/20 05:45:59;;;;;;;7.45;5.57;;;;;;;4.92;91.43;101858.31;5005618;28;20053;-78
2020/12/20 05:48:43;;;;;;;8.20;5.97;;;;;;;4.86;91.50;101864.69;4997312;28;20401;-78
2020/12/20 05:51:13;;;;;;;7.65;5.88;;;;;;;4.90;91.66;101873.97;5008655;28;20031;-78
2020/12/20 05:53:40;;;;;;;7.43;5.43;;;;;;;4.88;91.71;101873.22;4987616;28;20389;-77
2020/12/20 05:56:06;;;;;;;9.10;5.95;;;;;;;4.84;91.80;101869.09;4998076;28;20037;-77
2020/12/20 05:58:33;;;;;;;6.93;5.30;;;;;;;4.82;91.71;101871.78;4996776;28;20088;-78
2020/12/20 06:01:00;;;;;;;8.38;5.43;;;;;;;4.89;91.86;101872.28;4997527;28;20041;-79
2020/12/20 06:03:26;;;;;;;9.02;5.82;;;;;;;4.90;91.26;101870.53;4984955;28;20035;-77
2020/12/20 06:05:52;;;;;;;8.35;5.28;;;;;;;4.86;91.49;101875.06;4979012;28;20070;-77
2020/12/20 06:08:19;;;;;;;9.32;5.70;;;;;;;4.87;91.63;101884.53;4961305;28;20038;-80
2020/12/20 06:10:47;;;;;;;6.55;5.03;;;;;;;4.87;92.19;101874.13;4980150;28;20128;-79
2020/12/20 06:13:24;;;;;;;7.38;6.05;;;;;;;4.88;91.67;101876.66;4993778;28;20022;-77
2020/12/20 06:15:56;;;;;;;13.13;5.78;;;;;;;4.87;91.59;101879.34;5009219;28;20041;-78
2020/12/20 06:18:25;;;;;;;8.88;5.68;;;;;;;4.91;91.60;101873.03;4983649;28;20068;-77
2020/12/20 06:20:55;;;;;;;8.35;5.80;;;;;;;4.95;91.42;101876.31;5017214;28;20488;-79
2020/12/20 06:23:25;;;;;;;7.55;5.82;;;;;;;4.94;91.09;101883.28;4994654;28;20034;-78
2020/12/20 06:25:53;;;;;;;9.40;6.25;;;;;;;4.89;91.26;101877.50;4974425;28;20057;-79
2020/12/20 06:28:27;;;;;;;9.07;5.80;;;;;;;4.87;91.64;101877.56;4980575;28;20034;-77
2020/12/20 06:30:57;;;;;;;6.68;5.32;;;;;;;4.88;91.37;101878.44;4988338;28;20038;-77
2020/12/20 06:33:34;;;;;;;9.60;5.85;;;;;;;4.89;91.16;101874.88;4978336;28;20500;-77
2020/12/20 06:36:09;;;;;;;6.63;5.63;;;;;;;4.83;91.57;101875.22;4998509;28;20635;-77
2020/12/20 06:38:34;;;;;;;10.50;5.65;;;;;;;4.78;91.98;101878.06;4964289;28;20038;-77
2020/12/20 06:41:00;;;;;;;7.97;6.35;;;;;;;4.70;92.02;101874.19;4997205;28;20040;-77
2020/12/20 06:43:36;;;;;;;7.05;6.15;;;;;;;4.67;91.94;101877.78;4996888;28;20484;-77
2020/12/20 06:46:04;;;;;;;9.65;5.90;;;;;;;4.60;92.26;101874.69;4986103;28;20093;-77
2020/12/20 06:48:31;;;;;;;9.07;6.53;;;;;;;4.61;92.09;101878.94;4987091;28;20092;-77
2020/12/20 06:50:57;;;;;;;8.68;6.25;;;;;;;4.66;92.40;101873.50;5013991;28;20034;-77
2020/12/20 06:53:45;;;;;;;8.50;6.38;;;;;;;4.68;91.99;101874.28;5000283;28;20108;-78
2020/12/20 06:56:21;;;;;;;9.30;6.43;;;;;;;4.68;92.25;101869.91;4990585;28;20056;-77
2020/12/20 06:58:48;;;;;;;8.63;5.93;;;;;;;4.65;92.06;101866.63;4996609;28;20030;-77
2020/12/20 07:01:39;;;;;;;9.13;6.63;;;;;;;4.61;92.48;101878.94;4996757;28;20031;-79
2020/12/20 07:04:15;;;;;;;10.65;6.18;;;;;;;4.63;92.40;101878.88;4997271;28;20036;-76
2020/12/20 07:07:05;;;;;;;8.73;5.70;;;;;;;4.61;92.64;101880.69;4965417;28;20054;-78
2020/12/20 07:09:32;;;;;;;11.85;6.75;;;;;;;4.60;92.43;101890.28;4985065;28;20043;-77
2020/12/20 07:11:58;;;;;;;9.45;7.10;;;;;;;4.64;92.15;101883.16;4988965;28;20030;-77
2020/12/20 07:14:23;;;;;;;9.13;6.88;;;;;;;4.63;92.26;101879.72;4962475;28;20463;-77
2020/12/20 07:16:50;;;;;;;9.88;6.15;;;;;;;4.70;92.13;101871.59;4991267;28;20459;-76
2020/12/20 07:19:24;;;;;;;10.07;6.28;;;;;;;4.68;91.63;101869.91;4960173;28;20392;-77
2020/12/20 07:21:52;;;;;;;8.90;6.43;;;;;;;4.85;91.17;101871.63;4998547;28;20113;-79
2020/12/20 07:24:19;;;;;;;11.35;6.78;;;;;;;4.84;91.00;101872.56;5001271;28;20030;-77
2020/12/20 07:26:56;;;;;;;10.00;6.60;;;;;;;4.80;90.80;101878.84;5010773;28;20121;-78
2020/12/20 07:29:22;;;;;;;12.57;7.00;;;;;;;4.75;91.48;101880.84;4982168;28;20117;-78
2020/12/20 07:31:53;;;;;;;9.05;6.88;;;;;;;4.74;91.46;101879.13;5013035;28;20041;-76
2020/12/20 07:34:19;;;;;;;8.93;6.53;;;;;;;4.74;91.55;101883.50;4977287;28;20041;-76
2020/12/20 07:36:45;;;;;;;9.57;6.68;;;;;;;4.70;91.42;101872.44;4977338;28;20038;-78
2020/12/20 07:39:11;;;;;;;8.60;6.70;;;;;;;4.75;91.11;101880.00;5008025;28;20037;-78
2020/12/20 07:41:37;;;;;;;9.35;6.80;;;;;;;4.80;91.27;101889.22;4996548;28;20041;-77
2020/12/20 07:44:07;;;;;;;10.27;7.45;;;;;;;4.91;90.71;101893.84;4981596;28;20519;-78
2020/12/20 07:46:33;;;;;;;10.68;7.00;;;;;;;4.93;90.40;101901.56;4980278;28;20123;-79
2020/12/20 07:49:06;;;;;;;9.98;6.78;;;;;;;4.86;90.68;101898.47;4955237;28;20038;-77
2020/12/20 07:51:32;;;;;;;;;;;;;;;4.86;90.94;101901.06;4996858;28;20034;-78
2020/12/20 07:54:00;;;;;;;9.88;6.55;;;;;;;4.84;90.97;101916.75;4998238;28;19921;-80
2020/12/20 07:56:44;;;;;;;8.02;6.50;;;;;;;4.88;90.68;101905.25;5012086;28;20037;-79
2020/12/20 07:59:12;;;;;;;8.23;6.05;;;;;;;4.85;90.50;101902.81;4995656;28;20576;-77
2020/12/20 08:01:39;;;;;;;12.63;7.15;;;;;;;4.81;90.56;101905.66;4997466;28;20094;-77
2020/12/20 08:04:13;;;;;;;7.85;5.97;;;;;;;4.85;90.79;101914.97;4996301;28;20092;-77
2020/12/20 08:06:44;;;;;;;10.10;6.43;;;;;;;4.92;90.18;101902.50;4985319;28;20120;-77
2020/12/20 08:09:17;;;;;;;7.22;6.10;;;;;;;4.85;90.72;101894.19;5010160;28;20034;-79
2020/12/20 08:11:44;;;;;;;11.70;7.07;;;;;;;4.82;90.33;101895.19;4961554;28;20177;-78
2020/12/20 08:14:12;;;;;;;9.25;6.35;;;;;;;4.90;90.47;101906.91;4991577;28;20034;-77
2020/12/20 08:16:41;;;;;;;9.15;6.72;;;;;;;4.96;90.07;101904.03;4995333;28;20038;-78
2020/12/20 08:19:14;;;;;;;8.32;6.03;;;;;;;5.00;90.18;101914.16;5006442;28;20089;-78
2020/12/20 08:22:04;;;;;;;9.27;6.60;;;;;;;4.95;90.05;101918.75;5000379;28;20035;-77
2020/12/20 08:24:36;;;;;;;7.07;5.47;;;;;;;4.92;91.09;101931.09;4988182;28;20030;-77
2020/12/20 08:27:16;;;;;;;8.25;6.43;;;;;;;4.88;90.98;101933.84;4973279;28;20437;-77
2020/12/20 08:29:46;;;;;;;11.07;7.03;;;;;;;4.91;90.87;101927.66;4992583;28;20038;-77
2020/12/20 08:32:16;;;;;;;9.20;6.97;;;;;;;4.95;90.62;101923.97;4999612;28;20514;-77
2020/12/20 08:34:42;;;;;;;9.60;6.57;;;;;;;4.93;90.28;101936.19;4980021;28;20034;-77
2020/12/20 08:37:10;;;;;;;12.48;6.53;;;;;;;4.92;90.56;101925.91;5012859;28;20456;-77
2020/12/20 08:39:35;;;;;;;8.55;6.65;;;;;;;4.99;90.10;101922.03;4965623;28;20101;-80
2020/12/20 08:42:05;;;;;;;9.57;7.07;;;;;;;4.97;90.15;101923.88;5009888;28;20038;-78
2020/12/20 08:44:31;;;;;;;8.30;5.13;;;;;;;4.93;90.59;101925.81;4996214;28;20027;-80
2020/12/20 08:47:12;;;;;;;9.10;6.60;;;;;;;4.90;90.80;101928.59;5003351;28;20038;-78
2020/12/20 08:49:40;;;;;;;11.57;8.05;;;;;;;4.93;90.94;101920.59;4999259;28;20521;-75
2020/12/20 08:52:11;;;;;;;9.93;7.57;;;;;;;4.93;90.81;101917.16;4996616;28;20636;-75
2020/12/20 08:54:36;;;;;;;11.68;7.60;;;;;;;4.99;90.23;101920.31;4997284;28;20041;-76
2020/12/20 08:57:07;;;;;;;9.00;6.82;;;;;;;5.06;90.35;101916.44;5005923;28;20042;-78
2020/12/20 08:59:36;;;;;;;15.70;7.10;;;;;;;5.06;89.93;101915.59;4979515;28;20073;-77
2020/12/20 09:02:03;;;;;;;7.32;5.57;;;;;;;5.08;90.20;101916.34;4996387;28;20129;-78
2020/12/20 09:04:34;;;;;;;11.27;7.25;;;;;;;5.07;90.26;101907.72;4980036;28;20039;-78
2020/12/20 09:07:15;;;;;;;9.50;6.68;;;;;;;5.13;89.89;101911.75;4994404;28;20061;-77
2020/12/20 09:09:40;;;;;;;11.35;6.70;;;;;;;5.16;90.23;101914.19;4962641;28;20049;-77
2020/12/20 09:12:19;;;;;;;9.45;6.68;;;;;;;5.13;90.01;101927.34;4979910;28;20034;-78
2020/12/20 09:15:02;;;;;;;9.75;6.07;;;;;;;5.13;90.11;101926.53;4977268;28;20429;-75
2020/12/20 09:17:33;;;;;;;12.15;6.82;;;;;;;5.14;90.34;101928.19;5006548;28;20473;-77
2020/12/20 09:20:00;;;;;;;7.45;6.15;;;;;;;5.13;90.29;101934.31;5014636;28;20476;-77
2020/12/20 09:22:57;;;;;;;8.77;6.97;;;;;;;5.18;89.98;101930.56;5033436;28;20734;-79
2020/12/20 09:25:43;;;;;;;10.35;7.47;;;;;;;5.18;90.19;101933.16;5000966;28;20042;-78
2020/12/20 09:28:14;;;;;;;10.45;7.15;;;;;;;5.27;89.54;101929.19;4990493;28;20034;-78
2020/12/20 09:30:43;;;;;;;9.45;7.45;;;;;;;5.22;89.68;101937.28;5014561;28;20042;-79
2020/12/20 09:33:15;;;;;;;12.15;7.75;;;;;;;5.30;89.88;101936.84;5005975;28;20043;-80
2020/12/20 09:35:59;;;;;;;14.95;8.20;;;;;;;5.30;89.98;101936.84;5025746;28;20046;-78
2020/12/20 09:38:36;;;;;;;12.25;7.57;;;;;;;5.25;89.72;101937.13;5001153;28;20038;-75
2020/12/20 09:41:05;;;;;;;13.60;7.28;;;;;;;5.19;89.34;101926.19;5016512;28;20033;-78
2020/12/20 09:43:31;;;;;;;12.43;7.47;;;;;;;5.31;90.25;101933.31;5003338;28;20049;-77
2020/12/20 09:45:58;;;;;;;9.52;7.20;;;;;;;5.36;89.44;101930.47;5000329;28;20157;-78
2020/12/20 09:48:25;;;;;;;12.43;7.93;;;;;;;5.44;89.37;101931.75;5010309;28;20057;-78
2020/12/20 09:50:51;;;;;;;13.52;8.23;;;;;;;5.51;89.44;101919.22;5019889;28;20050;-79
2020/12/20 09:53:17;;;;;;;12.05;8.38;;;;;;;5.49;89.04;101931.47;5000304;28;20042;-78
2020/12/20 09:55:42;;;;;;;10.25;7.25;;;;;;;5.51;89.55;101934.84;4992567;28;20038;-79
2020/12/20 09:58:10;;;;;;;10.23;6.82;;;;;;;5.53;89.16;101922.56;4996742;28;20058;-78
2020/12/20 10:00:35;;;;;;;11.63;7.57;;;;;;;5.57;88.92;101924.06;4990010;28;20042;-80
2020/12/20 10:03:01;;;;;;;12.65;8.32;;;;;;;5.54;89.38;101921.66;4983353;28;20053;-76
2020/12/20 10:05:26;;;;;;;8.75;6.85;;;;;;;5.52;89.80;101923.53;4997912;28;20531;-76
2020/12/20 10:07:52;;;;;;;10.98;8.52;;;;;;;5.50;89.78;101924.50;4995940;28;20027;-77
2020/12/20 10:10:18;;;;;;;11.73;7.53;;;;;;;5.57;89.08;101926.69;4996477;28;20496;-78
2020/12/20 10:12:44;;;;;;;8.90;7.07;;;;;;;5.63;89.25;101925.50;4952393;28;20042;-78
2020/12/20 10:15:10;;;;;;;8.73;7.10;;;;;;;5.73;88.65;101920.66;4979192;28;20042;-78
2020/12/20 10:17:35;;;;;;;10.20;7.80;;;;;;;5.72;88.77;101921.56;4990905;28;20042;-78
2020/12/20 10:20:01;;;;;;;12.38;8.40;;;;;;;5.72;89.13;101924.16;4994937;28;20031;-77
2020/12/20 10:22:26;;;;;;;9.38;6.70;;;;;;;5.77;89.05;101932.56;4995205;28;20030;-77
2020/12/20 10:24:52;;;;;;;10.68;8.10;;;;;;;5.89;88.39;101925.81;4995988;28;20057;-80
2020/12/20 10:27:20;;;;;;;11.68;7.57;;;;;;;5.92;88.48;101928.25;4980334;28;20019;-75
2020/12/20 10:29:46;;;;;;;9.43;7.22;;;;;;;5.98;88.28;101925.31;4996360;28;20046;-77
2020/12/20 10:32:11;;;;;;;9.43;7.35;;;;;;;6.03;87.49;101921.53;4994759;28;20050;-78
2020/12/20 10:34:37;;;;;;;14.85;8.27;;;;;;;6.06;88.06;101927.50;5002995;28;20034;-78
2020/12/20 10:37:03;;;;;;;13.55;8.32;;;;;;;6.02;87.85;101914.63;4999624;28;20064;-77
2020/12/20 10:39:28;;;;;;;9.95;7.68;;;;;;;6.07;88.23;101923.97;5009725;28;20129;-77
2020/12/20 10:41:54;;;;;;;14.18;8.27;;;;;;;6.17;87.67;101922.50;5007526;28;20378;-78
2020/12/20 10:44:23;;;;;;;11.35;8.48;;;;;;;6.13;87.64;101911.41;4996096;28;20082;-78
2020/12/20 10:46:52;;;;;;;9.35;7.63;;;;;;;6.21;87.37;101921.38;4997092;28;20034;-78
2020/12/20 10:49:19;;;;;;;11.20;7.78;;;;;;;6.18;87.94;101908.56;4982935;28;20030;-81
2020/12/20 10:51:54;;;;;;;12.15;7.95;;;;;;;6.20;87.88;101906.69;4963755;28;20049;-79
2020/12/20 10:54:20;;;;;;;13.13;8.93;;;;;;;6.21;87.50;101903.16;4962905;28;20030;-77
2020/12/20 10:56:47;;;;;;;11.85;7.95;;;;;;;6.17;88.06;101909.47;4996126;28;20181;-78
2020/12/20 10:59:13;;;;;;;11.88;8.38;;;;;;;6.21;87.75;101909.19;4984983;28;20035;-78
2020/12/20 11:01:39;;;;;;;12.57;9.25;;;;;;;6.20;88.10;101906.69;4991318;28;20030;-78
2020/12/20 11:04:04;;;;;;;11.52;8.68;;;;;;;6.18;88.56;101912.00;4982514;28;20037;-79
2020/12/20 11:06:30;;;;;;;11.15;8.45;;;;;;;6.20;88.39;101914.50;4978565;28;20038;-77
2020/12/20 11:08:56;;;;;;;12.18;8.43;;;;;;;6.21;88.21;101911.78;4978807;28;20396;-79
2020/12/20 11:11:29;;;;;;;12.65;8.57;;;;;;;6.27;88.18;101902.78;5001588;28;20030;-79
2020/12/20 11:13:54;;;;;;;;;;;;;;;6.27;88.70;101904.56;5005953;28;20057;-80
2020/12/20 11:16:20;;;;;;;10.95;8.48;;;;;;;6.26;88.62;101905.50;4993302;28;19924;-80
2020/12/20 11:18:46;;;;;;;11.43;8.50;;;;;;;6.26;88.60;101898.53;4982571;28;20480;-78
2020/12/20 11:21:13;;;;;;;14.30;9.63;;;;;;;6.24;89.61;101898.59;5002895;28;20037;-78
2020/12/20 11:23:39;;;;;;;11.05;8.38;;;;;;;6.28;89.29;101893.22;4991616;28;20043;-79
2020/12/20 11:26:10;;;;;;;12.52;9.20;;;;;;;6.32;88.87;101892.09;4994124;28;20035;-78
2020/12/20 11:28:35;;;;;;;14.93;9.68;;;;;;;6.35;89.38;101887.56;4961132;28;20030;-78
2020/12/20 11:31:01;;;;;;;11.00;8.57;;;;;;;6.38;89.10;101895.16;4976333;28;20397;-79
2020/12/20 11:33:27;;;;;;;12.50;8.80;;;;;;;6.50;88.75;101897.97;4993138;28;20125;-78
2020/12/20 11:35:52;;;;;;;13.23;8.70;;;;;;;6.50;88.27;101887.56;4977028;28;20117;-77
2020/12/20 11:38:17;;;;;;;12.73;8.57;;;;;;;6.53;88.00;101896.03;4960845;28;20520;-77
2020/12/20 11:40:43;;;;;;;12.45;8.68;;;;;;;6.50;88.23;101891.03;4993676;28;20035;-77
2020/12/20 11:43:08;;;;;;;13.88;8.98;;;;;;;6.54;88.78;101886.47;4982343;28;20073;-77